createdAt,value
2022-08-17T00:01:44.989Z,101196.28
2022-08-17T00:04:19.348Z,101194.78
2022-08-17T00:06:49.124Z,101199.56
2022-08-17T00:09:18.766Z,101205.06
2022-08-17T00:12:42.083Z,101205.56
2022-08-17T00:14:36.040Z,101202.81
2022-08-17T00:17:04.651Z,101213.84
2022-08-17T00:19:32.629Z,101207.56
2022-08-17T00:22:34.181Z,101197.31
2022-08-17T00:24:50.170Z,101199.81
2022-08-17T00:27:17.655Z,101211.59
2022-08-17T00:29:45.837Z,101208.81
2022-08-17T00:33:12.524Z,101206.81
2022-08-17T00:35:00.452Z,101204.59
2022-08-17T00:37:26.948Z,101203.84
2022-08-17T00:39:53.490Z,101205.88
2022-08-17T00:42:20.026Z,101204.59
2022-08-17T00:44:46.586Z,101206.63
2022-08-17T00:47:13.178Z,101202.31
2022-08-17T00:49:39.797Z,101197.59
2022-08-17T00:52:15.388Z,101191.31
2022-08-17T00:54:44.769Z,101200.34
2022-08-17T00:57:18.169Z,101196.06
2022-08-17T00:59:56.040Z,101192.59
2022-08-17T01:02:34.304Z,101194.59
2022-08-17T01:05:14.458Z,101198.09
2022-08-17T01:07:42.322Z,101200.63
2022-08-17T01:10:59.779Z,101197.84
2022-08-17T01:12:58.071Z,101201.16
2022-08-17T01:15:24.624Z,101203.91
2022-08-17T01:17:51.117Z,101198.88
2022-08-17T01:20:17.737Z,101209.88
2022-08-17T01:22:44.341Z,101205.66
2022-08-17T01:25:12.590Z,101205.66
2022-08-17T01:27:39.228Z,101216.13
2022-08-17T01:30:56.716Z,101215.94
2022-08-17T01:32:56.554Z,101219.44
2022-08-17T01:35:23.032Z,101224.19
2022-08-17T01:37:49.554Z,101214.19
2022-08-17T01:40:22.547Z,101223.94
2022-08-17T01:42:55.340Z,101223.94
2022-08-17T01:45:25.430Z,101227.44
2022-08-17T01:47:53.765Z,101226.19
2022-08-17T01:50:41.619Z,101225.19
2022-08-17T01:53:32.549Z,101227.19
2022-08-17T01:56:06.605Z,101230.69
2022-08-17T01:58:34.370Z,101231.97
2022-08-17T02:01:01.944Z,101228.97
2022-08-17T02:03:30.380Z,101229.19
2022-08-17T02:05:57.571Z,101231.97
2022-08-17T02:08:39.164Z,101224.97
2022-08-17T02:11:15.736Z,101222.22
2022-08-17T02:13:43.785Z,101227.72
2022-08-17T02:16:11.132Z,101223.69
2022-08-17T02:18:37.736Z,101219.47
2022-08-17T02:21:05.748Z,101224.97
2022-08-17T02:23:34.675Z,101214.44
2022-08-17T02:26:01.987Z,101216.44
2022-08-17T02:28:29.239Z,101217.19
2022-08-17T02:31:01.978Z,101230.22
2022-08-17T02:33:42.280Z,101218.44
2022-08-17T02:36:12.434Z,101223.94
2022-08-17T02:38:42.390Z,101222.47
2022-08-17T02:41:09.679Z,101234.25
2022-08-17T02:43:36.726Z,101232.75
2022-08-17T02:46:03.204Z,101227.00
2022-08-17T02:48:31.238Z,101223.00
2022-08-17T02:50:59.222Z,101222.25
2022-08-17T02:53:26.056Z,101220.97
2022-08-17T02:55:53.354Z,101212.47
2022-08-17T02:58:29.608Z,101208.97
2022-08-17T03:01:03.297Z,101204.72
2022-08-17T03:03:30.044Z,101207.72
2022-08-17T03:05:56.498Z,101207.72
2022-08-17T03:08:23.466Z,101196.72
2022-08-17T03:10:50.538Z,101207.72
2022-08-17T03:13:17.698Z,101207.47
2022-08-17T03:15:46.571Z,101215.72
2022-08-17T03:18:19.249Z,101217.53
2022-08-17T03:20:52.520Z,101212.75
2022-08-17T03:23:19.090Z,101212.75
2022-08-17T03:25:53.371Z,101215.50
2022-08-17T03:28:21.458Z,101208.75
2022-08-17T03:30:47.985Z,101212.75
2022-08-17T03:33:14.642Z,101206.50
2022-08-17T03:35:42.112Z,101214.00
2022-08-17T03:38:15.222Z,101209.00
2022-08-17T03:40:59.021Z,101214.00
2022-08-17T03:43:31.886Z,101207.75
2022-08-17T03:46:27.607Z,101214.53
2022-08-17T03:49:19.453Z,101215.28
2022-08-17T03:52:04.409Z,101220.53
2022-08-17T03:54:49.533Z,101221.81
2022-08-17T03:57:16.690Z,101221.03
2022-08-17T03:59:43.631Z,101217.06
2022-08-17T04:02:17.414Z,101212.03
2022-08-17T04:04:44.212Z,101216.31
2022-08-17T04:07:10.725Z,101213.28
2022-08-17T04:09:37.299Z,101214.78
2022-08-17T04:12:05.267Z,101216.78
2022-08-17T04:14:39.172Z,101222.81
2022-08-17T04:17:19.722Z,101216.56
2022-08-17T04:19:48.501Z,101224.28
2022-08-17T04:22:33.121Z,101218.78
2022-08-17T04:25:08.359Z,101224.06
2022-08-17T04:27:35.636Z,101227.56
2022-08-17T04:30:02.341Z,101230.81
2022-08-17T04:32:59.391Z,101224.06
2022-08-17T04:35:21.350Z,101226.06
2022-08-17T04:37:48.077Z,101235.09
2022-08-17T04:40:33.286Z,101230.06
2022-08-17T04:43:02.095Z,101232.34
2022-08-17T04:45:32.353Z,101233.56
2022-08-17T04:48:00.667Z,101237.09
2022-08-17T04:50:27.611Z,101234.84
2022-08-17T04:52:54.348Z,101236.31
2022-08-17T04:55:21.712Z,101243.84
2022-08-17T04:57:48.251Z,101241.59
2022-08-17T05:00:14.972Z,101236.09
2022-08-17T05:02:50.717Z,101233.13
2022-08-17T05:05:38.686Z,101242.13
2022-08-17T05:08:10.187Z,101247.63
2022-08-17T05:10:45.353Z,101245.84
2022-08-17T05:13:17.864Z,101239.59
2022-08-17T05:15:47.845Z,101247.63
2022-08-17T05:18:15.970Z,101238.63
2022-08-17T05:20:42.728Z,101240.59
2022-08-17T05:23:12.140Z,101239.38
2022-08-17T05:25:42.633Z,101250.38
2022-08-17T05:28:15.528Z,101248.84
2022-08-17T05:30:44.054Z,101250.38
2022-08-17T05:33:23.033Z,101250.84
2022-08-17T05:35:51.505Z,101253.84
2022-08-17T05:38:20.190Z,101253.13
2022-08-17T05:40:47.272Z,101253.13
2022-08-17T05:43:15.156Z,101258.63
2022-08-17T05:46:07.425Z,101251.59
2022-08-17T05:48:40.105Z,101261.38
2022-08-17T05:51:34.961Z,101262.63
2022-08-17T05:54:17.707Z,101258.13
2022-08-17T05:57:23.095Z,101254.88
2022-08-17T05:59:49.524Z,101258.34
2022-08-17T06:02:29.437Z,101263.16
2022-08-17T06:05:17.023Z,101263.16
2022-08-17T06:07:49.724Z,101262.38
2022-08-17T06:10:25.145Z,101257.38
2022-08-17T06:13:07.292Z,101264.19
2022-08-17T06:15:45.960Z,101275.19
2022-08-17T06:18:17.263Z,101273.41
2022-08-17T06:20:58.392Z,101273.41
2022-08-17T06:23:34.187Z,101278.91
2022-08-17T06:26:05.752Z,101274.88
2022-08-17T06:28:58.646Z,101279.66
2022-08-17T06:31:33.514Z,101272.88
2022-08-17T06:34:02.891Z,101277.91
2022-08-17T06:37:05.450Z,101279.91
2022-08-17T06:39:41.083Z,101280.66
2022-08-17T06:43:02.465Z,101279.91
2022-08-17T06:45:34.422Z,101287.63
2022-08-17T06:48:24.455Z,101290.91
2022-08-17T06:51:29.739Z,101288.91
2022-08-17T06:54:02.755Z,101288.38
2022-08-17T06:56:53.060Z,101285.63
2022-08-17T06:59:30.449Z,101291.66
2022-08-17T07:02:29.466Z,101293.91
2022-08-17T07:05:09.805Z,101296.88
2022-08-17T07:07:57.519Z,101298.41
2022-08-17T07:10:25.991Z,101292.91
2022-08-17T07:12:58.571Z,101297.16
2022-08-17T07:15:34.011Z,101294.41
2022-08-17T07:18:00.753Z,101292.59
2022-08-17T07:20:27.858Z,101290.63
2022-08-17T07:23:00.444Z,101297.63
2022-08-17T07:25:28.576Z,101289.59
2022-08-17T07:28:00.242Z,101287.59
2022-08-17T07:30:45.889Z,101298.88
2022-08-17T07:33:26.626Z,101288.59
2022-08-17T07:35:53.880Z,101291.06
2022-08-17T07:38:26.859Z,101289.06
2022-08-17T07:41:04.784Z,101296.31
2022-08-17T07:43:40.590Z,101295.06
2022-08-17T07:46:37.991Z,101294.53
2022-08-17T07:49:07.449Z,101290.53
2022-08-17T07:51:38.949Z,101291.03
2022-08-17T07:54:22.287Z,101294.50
2022-08-17T07:56:56.834Z,101287.75
2022-08-17T07:59:33.737Z,101285.75
2022-08-17T08:02:06.858Z,101293.22
2022-08-17T08:05:01.401Z,101286.97
2022-08-17T08:07:39.295Z,101294.00
2022-08-17T08:10:12.436Z,101290.19
2022-08-17T08:12:57.360Z,101297.22
2022-08-17T08:15:34.903Z,101297.97
2022-08-17T08:18:05.637Z,101304.22
2022-08-17T08:20:54.042Z,101300.97
2022-08-17T08:23:48.767Z,101301.72
2022-08-17T08:26:18.879Z,101316.97
2022-08-17T08:28:56.979Z,101308.22
2022-08-17T08:31:48.425Z,101311.97
2022-08-17T08:34:44.550Z,101306.94
2022-08-17T08:37:32.745Z,101315.97
2022-08-17T08:40:38.829Z,101314.94
2022-08-17T08:43:53.270Z,101322.94
2022-08-17T08:46:26.052Z,101327.44
2022-08-17T08:48:59.648Z,101328.91
2022-08-17T08:51:37.416Z,101331.19
2022-08-17T08:54:28.492Z,101329.94
2022-08-17T08:57:23.920Z,101329.38
2022-08-17T09:00:03.015Z,101327.63
2022-08-17T09:02:48.013Z,101333.38
2022-08-17T09:05:42.425Z,101334.38
2022-08-17T09:08:21.373Z,101338.13
2022-08-17T09:11:04.924Z,101335.59
2022-08-17T09:14:22.117Z,101330.09
2022-08-17T09:17:19.203Z,101326.06
2022-08-17T09:19:55.540Z,101333.81
2022-08-17T09:22:32.370Z,101329.06
2022-08-17T09:25:09.313Z,101328.53
2022-08-17T09:27:53.958Z,101322.53
2022-08-17T09:30:21.540Z,101318.75
2022-08-17T09:32:56.517Z,101319.22
2022-08-17T09:35:33.613Z,101329.00
2022-08-17T09:39:01.582Z,101320.72
2022-08-17T09:41:50.416Z,101327.25
2022-08-17T09:44:42.757Z,101325.22
2022-08-17T09:47:22.047Z,101312.94
2022-08-17T09:50:07.022Z,101312.44
2022-08-17T09:52:33.546Z,101311.19
2022-08-17T09:55:01.818Z,101315.41
2022-08-17T09:57:46.855Z,101321.19
2022-08-17T10:00:34.677Z,101318.66
2022-08-17T10:03:25.676Z,101311.13
2022-08-17T10:06:21.759Z,101316.66
2022-08-17T10:08:51.907Z,101314.66
2022-08-17T10:12:03.455Z,101308.63
2022-08-17T10:14:43.615Z,101313.09
2022-08-17T10:17:16.612Z,101316.09
2022-08-17T10:20:19.999Z,101317.59
2022-08-17T10:23:15.137Z,101317.06
2022-08-17T10:26:04.786Z,101316.53
2022-08-17T10:28:50.029Z,101315.78
2022-08-17T10:31:38.827Z,101318.56
2022-08-17T10:34:41.155Z,101324.31
2022-08-17T10:37:08.135Z,101314.25
2022-08-17T10:39:54.139Z,101315.25
2022-08-17T10:42:42.705Z,101305.72
2022-08-17T10:45:19.918Z,101305.94
2022-08-17T10:48:06.540Z,101314.47
2022-08-17T10:51:00.172Z,101308.41
2022-08-17T10:53:32.918Z,101307.94
2022-08-17T10:56:14.537Z,101298.38
2022-08-17T10:58:57.638Z,101293.59
2022-08-17T11:01:33.861Z,101294.56
2022-08-17T11:04:19.858Z,101297.31
2022-08-17T11:07:10.443Z,101296.84
2022-08-17T11:10:14.164Z,101293.53
2022-08-17T11:13:01.276Z,101289.53
2022-08-17T11:15:45.955Z,101286.75
2022-08-17T11:18:27.730Z,101285.50
2022-08-17T11:21:26.597Z,101290.72
2022-08-17T11:24:16.627Z,101285.75
2022-08-17T11:27:05.025Z,101278.94
2022-08-17T11:29:37.502Z,101284.47
2022-08-17T11:32:29.078Z,101285.22
2022-08-17T11:35:20.287Z,101274.41
2022-08-17T11:38:02.968Z,101279.22
2022-08-17T11:40:44.531Z,101272.94
2022-08-17T11:43:45.696Z,101272.94
2022-08-17T11:46:12.227Z,101270.19
2022-08-17T11:49:00.692Z,101262.38
2022-08-17T11:52:02.005Z,101267.91
2022-08-17T11:54:34.036Z,101263.88
2022-08-17T11:57:36.244Z,101275.16
2022-08-17T12:00:10.906Z,101264.38
2022-08-17T12:02:47.456Z,101260.34
2022-08-17T12:05:15.234Z,101252.06
2022-08-17T12:07:49.572Z,101259.28
2022-08-17T12:10:21.934Z,101251.00
2022-08-17T12:12:51.941Z,101256.25
2022-08-17T12:15:25.324Z,101252.97
2022-08-17T12:17:53.825Z,101263.50
2022-08-17T12:20:23.451Z,101258.19
2022-08-17T12:23:03.832Z,101257.19
2022-08-17T12:25:51.444Z,101258.13
2022-08-17T12:28:24.373Z,101255.59
2022-08-17T12:30:52.334Z,101252.34
2022-08-17T12:33:25.450Z,101251.31
2022-08-17T12:36:04.818Z,101249.50
2022-08-17T12:38:34.603Z,101254.00
2022-08-17T12:41:23.809Z,101255.66
2022-08-17T12:44:14.247Z,101254.66
2022-08-17T12:47:00.715Z,101255.63
2022-08-17T12:49:29.610Z,101249.59
2022-08-17T12:52:04.569Z,101253.84
2022-08-17T12:54:45.444Z,101249.78
2022-08-17T12:57:25.037Z,101239.53
2022-08-17T13:00:01.491Z,101237.53
2022-08-17T13:02:38.335Z,101233.69
2022-08-17T13:05:05.425Z,101236.47
2022-08-17T13:07:42.032Z,101229.91
2022-08-17T13:10:16.979Z,101223.84
2022-08-17T13:12:44.122Z,101229.34
2022-08-17T13:15:20.984Z,101220.78
2022-08-17T13:17:57.830Z,101213.97
2022-08-17T13:20:24.565Z,101219.00
2022-08-17T13:22:59.719Z,101218.47
2022-08-17T13:25:27.311Z,101220.72
2022-08-17T13:27:55.302Z,101221.47
2022-08-17T13:30:28.197Z,101212.66
2022-08-17T13:32:57.003Z,101208.91
2022-08-17T13:35:39.732Z,101206.16
2022-08-17T13:38:11.766Z,101206.91
2022-08-17T13:40:50.432Z,101206.38
2022-08-17T13:43:44.918Z,101205.63
2022-08-17T13:46:24.305Z,101198.63
2022-08-17T13:48:59.755Z,101205.63
2022-08-17T13:51:33.655Z,101206.38
2022-08-17T13:54:06.140Z,101198.09
2022-08-17T13:57:18.799Z,101193.84
2022-08-17T13:59:54.193Z,101189.03
2022-08-17T14:02:28.378Z,101194.56
2022-08-17T14:04:59.153Z,101189.03
2022-08-17T14:07:34.007Z,101184.81
2022-08-17T14:10:20.955Z,101186.09
2022-08-17T14:12:48.117Z,101179.28
2022-08-17T14:15:17.216Z,101181.31
2022-08-17T14:17:43.993Z,101184.63
2022-08-17T14:20:13.750Z,101181.09
2022-08-17T14:22:52.409Z,101175.31
2022-08-17T14:25:22.642Z,101179.91
2022-08-17T14:27:52.829Z,101185.94
2022-08-17T14:30:23.108Z,101175.41
2022-08-17T14:32:52.020Z,101175.22
2022-08-17T14:35:23.162Z,101182.22
2022-08-17T14:37:51.212Z,101173.19
2022-08-17T14:40:22.994Z,101174.44
2022-08-17T14:42:49.849Z,101172.97
2022-08-17T14:45:29.830Z,101172.97
2022-08-17T14:47:59.057Z,101175.72
2022-08-17T14:50:25.746Z,101174.44
2022-08-17T14:52:52.985Z,101170.19
2022-08-17T14:55:20.681Z,101172.97
2022-08-17T14:57:47.298Z,101172.97
2022-08-17T15:00:16.544Z,101166.69
2022-08-17T15:02:55.310Z,101164.44
2022-08-17T15:05:24.600Z,101162.44
2022-08-17T15:07:53.060Z,101158.94
2022-08-17T15:10:20.096Z,101157.47
2022-08-17T15:12:46.788Z,101152.69
2022-08-17T15:15:15.373Z,101149.94
2022-08-17T15:17:46.047Z,101149.19
2022-08-17T15:20:17.771Z,101149.19
2022-08-17T15:22:46.349Z,101148.94
2022-08-17T15:25:13.684Z,101146.91
2022-08-17T15:27:40.528Z,101148.22
2022-08-17T15:30:08.875Z,101147.47
2022-08-17T15:32:38.766Z,101143.94
2022-08-17T15:35:08.967Z,101137.69
2022-08-17T15:37:36.419Z,101145.22
2022-08-17T15:40:05.338Z,101145.97
2022-08-17T15:42:32.062Z,101140.97
2022-08-17T15:45:01.487Z,101135.94
2022-08-17T15:47:27.942Z,101137.75
2022-08-17T15:49:59.405Z,101138.50
2022-08-17T15:52:29.662Z,101130.00
2022-08-17T15:55:01.077Z,101130.53
2022-08-17T15:57:28.180Z,101131.06
2022-08-17T15:59:58.693Z,101124.28
2022-08-17T16:03:45.180Z,101119.25
2022-08-17T16:05:24.030Z,101115.75
2022-08-17T16:07:52.597Z,101114.03
2022-08-17T16:10:19.742Z,101111.81
2022-08-17T16:12:47.917Z,101110.56
2022-08-17T16:15:15.276Z,101113.59
2022-08-17T16:17:41.831Z,101116.13
2022-08-17T16:20:19.939Z,101116.13
2022-08-17T16:22:48.322Z,101108.38
2022-08-17T16:25:21.636Z,101104.88
2022-08-17T16:27:53.270Z,101109.66
2022-08-17T16:30:23.214Z,101109.41
2022-08-17T16:32:51.880Z,101103.88
2022-08-17T16:35:21.266Z,101105.19
2022-08-17T16:37:48.798Z,101105.69
2022-08-17T16:40:17.002Z,101103.50
2022-08-17T16:42:48.371Z,101107.00
2022-08-17T16:45:24.505Z,101107.00
2022-08-17T16:47:51.698Z,101113.75
2022-08-17T16:50:21.002Z,101106.72
2022-08-17T16:52:48.593Z,101106.53
2022-08-17T16:55:19.172Z,101101.00
2022-08-17T16:57:48.541Z,101110.56
2022-08-17T17:00:19.220Z,101104.25
2022-08-17T17:02:47.941Z,101104.25
2022-08-17T17:05:42.383Z,101108.31
2022-08-17T17:08:12.827Z,101108.09
2022-08-17T17:10:48.373Z,101108.09
2022-08-17T17:13:24.128Z,101104.59
2022-08-17T17:16:00.714Z,101108.63
2022-08-17T17:18:39.207Z,101102.88
2022-08-17T17:21:13.145Z,101111.88
2022-08-17T17:23:59.435Z,101112.41
2022-08-17T17:26:51.369Z,101113.69
2022-08-17T17:29:49.167Z,101142.53
2022-08-17T17:32:37.769Z,101159.84
2022-08-17T17:35:31.930Z,101138.81
2022-08-17T17:38:04.784Z,101126.28
2022-08-17T17:40:47.092Z,101115.00
2022-08-17T17:43:37.741Z,101121.03
2022-08-17T17:46:28.554Z,101116.06
2022-08-17T17:48:57.155Z,101121.59
2022-08-17T17:52:07.197Z,101126.88
2022-08-17T17:54:47.857Z,101126.13
2022-08-17T17:57:21.385Z,101130.13
2022-08-17T18:00:02.435Z,101110.59
2022-08-17T18:02:51.733Z,101111.34
2022-08-17T18:05:31.631Z,101113.16
2022-08-17T18:08:10.625Z,101124.94
2022-08-17T18:10:49.959Z,101121.19
2022-08-17T18:13:35.597Z,101130.72
2022-08-17T18:16:06.637Z,101141.00
2022-08-17T18:18:46.182Z,101149.78
2022-08-17T18:21:27.480Z,101177.34
2022-08-17T18:24:06.902Z,101200.72
2022-08-17T18:26:33.490Z,101237.78
2022-08-17T18:29:01.623Z,101235.56
2022-08-17T18:31:28.498Z,101243.84
2022-08-17T18:34:46.687Z,101249.13
2022-08-17T18:37:30.001Z,101260.16
2022-08-17T18:39:56.559Z,101239.34
2022-08-17T18:42:29.172Z,101254.38
2022-08-17T18:44:56.069Z,101257.69
2022-08-17T18:47:28.888Z,101271.19
2022-08-17T18:49:59.095Z,101256.69
2022-08-17T18:52:33.014Z,101252.44
2022-08-17T18:55:13.856Z,101239.91
2022-08-17T18:57:54.862Z,101228.13
2022-08-17T19:00:30.414Z,101223.16
2022-08-17T19:03:02.843Z,101223.16
2022-08-17T19:05:40.591Z,101225.91
2022-08-17T19:08:26.059Z,101217.41
2022-08-17T19:11:05.710Z,101224.19
2022-08-17T19:13:47.146Z,101214.41
2022-08-17T19:16:25.547Z,101225.44
2022-08-17T19:19:10.103Z,101230.72
2022-08-17T19:21:43.307Z,101230.72
2022-08-17T19:24:14.396Z,101219.47
2022-08-17T19:26:53.953Z,101215.97
2022-08-17T19:29:53.936Z,101212.22
2022-08-17T19:32:25.523Z,101221.25
2022-08-17T19:34:52.750Z,101230.75
2022-08-17T19:37:40.381Z,101218.25
2022-08-17T19:40:51.117Z,101218.75
2022-08-17T19:43:27.800Z,101215.25
2022-08-17T19:46:14.994Z,101216.53
2022-08-17T19:49:21.453Z,101210.03
2022-08-17T19:52:37.402Z,101209.28
2022-08-17T19:55:23.926Z,101202.28
2022-08-17T19:58:26.304Z,101199.31
2022-08-17T20:00:54.991Z,101200.03
2022-08-17T20:03:34.791Z,101200.56
2022-08-17T20:06:13.001Z,101197.06
2022-08-17T20:09:00.705Z,101197.81
2022-08-17T20:11:36.755Z,101201.78
2022-08-17T20:14:20.425Z,101209.84
2022-08-17T20:16:46.944Z,101211.34
2022-08-17T20:19:28.630Z,101202.31
2022-08-17T20:22:12.640Z,101202.84
2022-08-17T20:24:53.888Z,101198.06
2022-08-17T20:27:33.614Z,101202.13
2022-08-17T20:30:09.155Z,101193.09
2022-08-17T20:32:56.011Z,101202.59
2022-08-17T20:35:52.957Z,101203.34
2022-08-17T20:38:56.671Z,101205.66
2022-08-17T20:41:25.973Z,101207.88
2022-08-17T20:43:55.291Z,101205.88
2022-08-17T20:46:37.364Z,101191.34
2022-08-17T20:49:24.265Z,101186.88
2022-08-17T20:52:00.820Z,101191.34
2022-08-17T20:54:40.744Z,101196.63
2022-08-17T20:57:14.029Z,101197.88
2022-08-17T20:59:43.740Z,101201.38
2022-08-17T21:02:20.007Z,101203.19
2022-08-17T21:05:00.700Z,101207.41
2022-08-17T21:07:42.555Z,101200.44
2022-08-17T21:10:17.506Z,101199.88
2022-08-17T21:12:56.097Z,101203.19
2022-08-17T21:15:50.385Z,101205.94
2022-08-17T21:18:44.766Z,101212.69
2022-08-17T21:21:26.643Z,101211.19
2022-08-17T21:23:59.235Z,101205.66
2022-08-17T21:26:31.696Z,101210.44
2022-08-17T21:29:30.064Z,101209.47
2022-08-17T21:32:03.388Z,101206.72
2022-08-17T21:34:43.109Z,101213.72
2022-08-17T21:37:18.625Z,101211.97
2022-08-17T21:39:51.878Z,101223.00
2022-08-17T21:42:24.954Z,101225.00
2022-08-17T21:44:55.570Z,101231.78
2022-08-17T21:47:26.663Z,101240.06
2022-08-17T21:49:55.471Z,101237.81
2022-08-17T21:52:24.179Z,101229.53
2022-08-17T21:54:56.821Z,101228.78
2022-08-17T21:57:27.477Z,101228.78
2022-08-17T21:59:58.088Z,101224.53
2022-08-17T22:02:33.858Z,101234.31
2022-08-17T22:05:04.304Z,101231.56
2022-08-17T22:07:46.282Z,101228.56
2022-08-17T22:10:32.463Z,101222.50
2022-08-17T22:13:29.348Z,101231.81
2022-08-17T22:16:15.384Z,101237.31
2022-08-17T22:18:57.642Z,101228.56
2022-08-17T22:21:25.842Z,101235.31
2022-08-17T22:24:05.542Z,101222.06
2022-08-17T22:27:02.703Z,101224.84
2022-08-17T22:29:59.679Z,101221.31
2022-08-17T22:32:42.935Z,101213.56
2022-08-17T22:35:18.685Z,101216.31
2022-08-17T22:37:45.545Z,101201.81
2022-08-17T22:40:25.233Z,101207.81
2022-08-17T22:42:51.847Z,101209.31
2022-08-17T22:45:18.457Z,101204.31
2022-08-17T22:47:48.750Z,101203.56
2022-08-17T22:50:24.131Z,101212.56
2022-08-17T22:53:21.790Z,101218.09
2022-08-17T22:56:13.335Z,101222.34
2022-08-17T22:59:10.220Z,101225.34
2022-08-17T23:01:39.078Z,101224.84
2022-08-17T23:04:11.838Z,101217.84
2022-08-17T23:06:43.699Z,101217.84
2022-08-17T23:09:10.274Z,101217.84
2022-08-17T23:11:49.987Z,101214.34
2022-08-17T23:14:19.646Z,101219.84
2022-08-17T23:16:47.709Z,101228.09
2022-08-17T23:19:16.892Z,101228.84
2022-08-17T23:21:47.263Z,101223.88
2022-08-17T23:24:23.816Z,101227.34
2022-08-17T23:26:50.432Z,101218.38
2022-08-17T23:29:17.028Z,101226.63
2022-08-17T23:31:43.543Z,101223.88
2022-08-17T23:34:12.910Z,101221.13
2022-08-17T23:36:39.529Z,101223.88
2022-08-17T23:39:07.296Z,101218.84
2022-08-17T23:41:38.568Z,101224.34
2022-08-17T23:44:06.347Z,101220.84
2022-08-17T23:46:33.241Z,101217.38
2022-08-17T23:49:00.543Z,101226.38
2022-08-17T23:51:30.839Z,101217.88
2022-08-17T23:54:08.234Z,101222.13
2022-08-17T23:56:43.530Z,101217.38
2022-08-17T23:59:09.964Z,101219.88
